sensor_id;sensor_type;location;lat;lon;timestamp;P1;durP1;ratioP1;P2;durP2;ratioP2
72524;SDS011;60547;48.502;8.996;2022-07-29T00:00:08;6.85;;;4.55;;
72524;SDS011;60547;48.502;8.996;2022-07-29T00:02:34;7.22;;;4.57;;
72524;SDS011;60547;48.502;8.996;2022-07-29T00:05:00;6.28;;;4.72;;
72524;SDS011;60547;48.502;8.996;2022-07-29T00:07:26;7.40;;;4.30;;
72524;SDS011;60547;48.502;8.996;2022-07-29T00:09:51;5.90;;;4.43;;
72524;SDS011;60547;48.502;8.996;2022-07-29T00:12:17;5.65;;;3.80;;
72524;SDS011;60547;48.502;8.996;2022-07-29T00:14:44;6.00;;;4.18;;
72524;SDS011;60547;48.502;8.996;2022-07-29T00:17:09;7.68;;;4.53;;
72524;SDS011;60547;48.502;8.996;2022-07-29T00:19:34;6.75;;;4.30;;
72524;SDS011;60547;48.502;8.996;2022-07-29T00:22:00;7.60;;;4.30;;
72524;SDS011;60547;48.502;8.996;2022-07-29T00:24:26;6.40;;;4.38;;
72524;SDS011;60547;48.502;8.996;2022-07-29T00:26:51;6.15;;;4.38;;
72524;SDS011;60547;48.502;8.996;2022-07-29T00:29:17;7.25;;;4.65;;
72524;SDS011;60547;48.502;8.996;2022-07-29T00:31:43;6.95;;;4.30;;
72524;SDS011;60547;48.502;8.996;2022-07-29T00:34:09;6.20;;;4.07;;
72524;SDS011;60547;48.502;8.996;2022-07-29T00:36:54;6.38;;;4.35;;
72524;SDS011;60547;48.502;8.996;2022-07-29T00:39:19;6.32;;;4.97;;
72524;SDS011;60547;48.502;8.996;2022-07-29T00:41:45;6.47;;;4.38;;
72524;SDS011;60547;48.502;8.996;2022-07-29T00:44:10;7.30;;;4.93;;
72524;SDS011;60547;48.502;8.996;2022-07-29T00:46:36;10.05;;;5.53;;
72524;SDS011;60547;48.502;8.996;2022-07-29T00:49:01;7.13;;;4.93;;
72524;SDS011;60547;48.502;8.996;2022-07-29T00:51:27;6.63;;;5.05;;
72524;SDS011;60547;48.502;8.996;2022-07-29T00:53:52;6.38;;;4.82;;
72524;SDS011;60547;48.502;8.996;2022-07-29T00:56:18;7.90;;;5.28;;
72524;SDS011;60547;48.502;8.996;2022-07-29T00:58:45;8.18;;;5.65;;
72524;SDS011;60547;48.502;8.996;2022-07-29T01:01:12;9.95;;;5.63;;
72524;SDS011;60547;48.502;8.996;2022-07-29T01:03:37;8.13;;;5.38;;
72524;SDS011;60547;48.502;8.996;2022-07-29T01:06:03;10.40;;;6.32;;
72524;SDS011;60547;48.502;8.996;2022-07-29T01:08:29;7.93;;;5.85;;
72524;SDS011;60547;48.502;8.996;2022-07-29T01:10:57;7.78;;;5.70;;
72524;SDS011;60547;48.502;8.996;2022-07-29T01:13:22;7.03;;;5.13;;
72524;SDS011;60547;48.502;8.996;2022-07-29T01:15:54;8.02;;;5.00;;
72524;SDS011;60547;48.502;8.996;2022-07-29T01:18:31;7.32;;;5.32;;
72524;SDS011;60547;48.502;8.996;2022-07-29T01:27:11;7.40;;;5.35;;
72524;SDS011;60547;48.502;8.996;2022-07-29T01:30:07;7.70;;;4.97;;
72524;SDS011;60547;48.502;8.996;2022-07-29T01:32:34;6.13;;;4.15;;
72524;SDS011;60547;48.502;8.996;2022-07-29T01:35:03;6.97;;;4.10;;
72524;SDS011;60547;48.502;8.996;2022-07-29T01:37:43;6.40;;;3.95;;
72524;SDS011;60547;48.502;8.996;2022-07-29T01:40:22;7.75;;;4.60;;
72524;SDS011;60547;48.502;8.996;2022-07-29T01:42:52;5.78;;;4.20;;
72524;SDS011;60547;48.502;8.996;2022-07-29T01:45:26;7.40;;;4.55;;
72524;SDS011;60547;48.502;8.996;2022-07-29T01:48:03;5.35;;;4.03;;
72524;SDS011;60547;48.502;8.996;2022-07-29T01:53:00;5.80;;;3.90;;
72524;SDS011;60547;48.502;8.996;2022-07-29T01:55:34;6.70;;;4.60;;
72524;SDS011;60547;48.502;8.996;2022-07-29T01:58:04;5.22;;;3.80;;
72524;SDS011;60547;48.502;8.996;2022-07-29T02:00:31;5.57;;;3.50;;
72524;SDS011;60547;48.502;8.996;2022-07-29T02:02:58;5.15;;;3.60;;
72524;SDS011;60547;48.502;8.996;2022-07-29T02:05:27;5.57;;;3.85;;
72524;SDS011;60547;48.502;8.996;2022-07-29T02:07:55;5.47;;;4.10;;
72524;SDS011;60547;48.502;8.996;2022-07-29T02:10:25;6.50;;;4.43;;
72524;SDS011;60547;48.502;8.996;2022-07-29T02:12:54;7.60;;;3.83;;
72524;SDS011;60547;48.502;8.996;2022-07-29T02:15:22;5.88;;;3.65;;
72524;SDS011;60547;48.502;8.996;2022-07-29T02:17:55;6.40;;;3.55;;
72524;SDS011;60547;48.502;8.996;2022-07-29T02:20:25;5.38;;;3.58;;
72524;SDS011;60547;48.502;8.996;2022-07-29T02:22:52;6.25;;;3.67;;
72524;SDS011;60547;48.502;8.996;2022-07-29T02:25:20;6.50;;;3.60;;
72524;SDS011;60547;48.502;8.996;2022-07-29T02:27:47;5.70;;;4.20;;
72524;SDS011;60547;48.502;8.996;2022-07-29T02:30:15;7.43;;;4.00;;
72524;SDS011;60547;48.502;8.996;2022-07-29T02:32:41;7.03;;;3.97;;
72524;SDS011;60547;48.502;8.996;2022-07-29T02:35:10;6.35;;;3.88;;
72524;SDS011;60547;48.502;8.996;2022-07-29T02:37:39;6.47;;;4.32;;
72524;SDS011;60547;48.502;8.996;2022-07-29T02:40:08;6.57;;;4.00;;
72524;SDS011;60547;48.502;8.996;2022-07-29T02:45:03;8.10;;;4.68;;
72524;SDS011;60547;48.502;8.996;2022-07-29T02:47:39;7.57;;;5.05;;
72524;SDS011;60547;48.502;8.996;2022-07-29T02:50:15;8.68;;;5.50;;
72524;SDS011;60547;48.502;8.996;2022-07-29T02:52:47;9.60;;;5.57;;
72524;SDS011;60547;48.502;8.996;2022-07-29T02:56:23;8.90;;;4.90;;
72524;SDS011;60547;48.502;8.996;2022-07-29T02:58:33;7.35;;;5.20;;
72524;SDS011;60547;48.502;8.996;2022-07-29T03:01:03;6.22;;;5.07;;
72524;SDS011;60547;48.502;8.996;2022-07-29T03:03:34;9.95;;;4.63;;
72524;SDS011;60547;48.502;8.996;2022-07-29T03:06:02;7.35;;;4.57;;
72524;SDS011;60547;48.502;8.996;2022-07-29T03:08:29;8.98;;;4.95;;
72524;SDS011;60547;48.502;8.996;2022-07-29T03:10:56;9.68;;;5.25;;
72524;SDS011;60547;48.502;8.996;2022-07-29T03:13:22;13.05;;;5.15;;
72524;SDS011;60547;48.502;8.996;2022-07-29T03:15:49;6.55;;;5.25;;
72524;SDS011;60547;48.502;8.996;2022-07-29T03:18:15;7.75;;;4.95;;
72524;SDS011;60547;48.502;8.996;2022-07-29T03:20:40;7.70;;;4.82;;
72524;SDS011;60547;48.502;8.996;2022-07-29T03:23:09;9.18;;;5.10;;
72524;SDS011;60547;48.502;8.996;2022-07-29T03:25:35;8.50;;;5.63;;
72524;SDS011;60547;48.502;8.996;2022-07-29T03:28:01;6.95;;;5.13;;
72524;SDS011;60547;48.502;8.996;2022-07-29T03:30:26;8.23;;;5.03;;
72524;SDS011;60547;48.502;8.996;2022-07-29T03:32:53;6.55;;;4.93;;
72524;SDS011;60547;48.502;8.996;2022-07-29T03:35:19;6.97;;;4.50;;
72524;SDS011;60547;48.502;8.996;2022-07-29T03:37:45;9.40;;;5.10;;
72524;SDS011;60547;48.502;8.996;2022-07-29T03:40:11;8.27;;;4.72;;
72524;SDS011;60547;48.502;8.996;2022-07-29T03:42:41;8.10;;;5.55;;
72524;SDS011;60547;48.502;8.996;2022-07-29T03:45:09;6.65;;;5.22;;
72524;SDS011;60547;48.502;8.996;2022-07-29T03:47:38;7.65;;;5.47;;
72524;SDS011;60547;48.502;8.996;2022-07-29T03:52:35;7.50;;;5.07;;
72524;SDS011;60547;48.502;8.996;2022-07-29T03:55:02;9.60;;;5.50;;
72524;SDS011;60547;48.502;8.996;2022-07-29T03:57:28;7.15;;;4.90;;
72524;SDS011;60547;48.502;8.996;2022-07-29T03:59:55;5.93;;;4.38;;
72524;SDS011;60547;48.502;8.996;2022-07-29T04:02:21;7.65;;;5.20;;
72524;SDS011;60547;48.502;8.996;2022-07-29T04:04:48;7.88;;;4.63;;
72524;SDS011;60547;48.502;8.996;2022-07-29T04:07:14;7.63;;;5.28;;
72524;SDS011;60547;48.502;8.996;2022-07-29T04:09:40;8.02;;;4.35;;
72524;SDS011;60547;48.502;8.996;2022-07-29T04:12:06;6.57;;;4.35;;
72524;SDS011;60547;48.502;8.996;2022-07-29T04:14:32;5.72;;;4.38;;
72524;SDS011;60547;48.502;8.996;2022-07-29T04:16:59;5.50;;;3.85;;
72524;SDS011;60547;48.502;8.996;2022-07-29T04:19:25;5.63;;;3.75;;
72524;SDS011;60547;48.502;8.996;2022-07-29T04:21:51;7.28;;;3.92;;
72524;SDS011;60547;48.502;8.996;2022-07-29T04:24:16;5.43;;;3.83;;
72524;SDS011;60547;48.502;8.996;2022-07-29T04:26:42;5.30;;;3.85;;
72524;SDS011;60547;48.502;8.996;2022-07-29T04:29:07;5.85;;;4.07;;
72524;SDS011;60547;48.502;8.996;2022-07-29T04:31:33;8.20;;;4.53;;
72524;SDS011;60547;48.502;8.996;2022-07-29T04:33:58;7.05;;;5.05;;
72524;SDS011;60547;48.502;8.996;2022-07-29T04:36:23;8.05;;;4.85;;
72524;SDS011;60547;48.502;8.996;2022-07-29T04:38:49;6.70;;;4.38;;
72524;SDS011;60547;48.502;8.996;2022-07-29T04:41:14;11.15;;;5.28;;
72524;SDS011;60547;48.502;8.996;2022-07-29T04:43:40;6.00;;;4.50;;
72524;SDS011;60547;48.502;8.996;2022-07-29T04:46:06;9.95;;;4.35;;
72524;SDS011;60547;48.502;8.996;2022-07-29T04:48:32;7.15;;;4.82;;
72524;SDS011;60547;48.502;8.996;2022-07-29T04:50:57;7.57;;;4.47;;
72524;SDS011;60547;48.502;8.996;2022-07-29T04:53:23;7.63;;;4.78;;
72524;SDS011;60547;48.502;8.996;2022-07-29T04:55:48;6.75;;;3.97;;
72524;SDS011;60547;48.502;8.996;2022-07-29T04:58:14;7.30;;;4.10;;
72524;SDS011;60547;48.502;8.996;2022-07-29T05:00:39;6.03;;;4.00;;
72524;SDS011;60547;48.502;8.996;2022-07-29T05:03:05;5.13;;;3.63;;
72524;SDS011;60547;48.502;8.996;2022-07-29T05:05:30;4.97;;;3.50;;
72524;SDS011;60547;48.502;8.996;2022-07-29T05:07:56;6.38;;;4.03;;
72524;SDS011;60547;48.502;8.996;2022-07-29T05:10:22;7.18;;;3.63;;
72524;SDS011;60547;48.502;8.996;2022-07-29T05:12:47;5.72;;;3.83;;
72524;SDS011;60547;48.502;8.996;2022-07-29T05:15:13;6.30;;;4.20;;
72524;SDS011;60547;48.502;8.996;2022-07-29T05:17:38;7.38;;;4.03;;
72524;SDS011;60547;48.502;8.996;2022-07-29T05:20:04;6.38;;;3.95;;
72524;SDS011;60547;48.502;8.996;2022-07-29T05:22:31;5.20;;;3.33;;
72524;SDS011;60547;48.502;8.996;2022-07-29T05:24:56;5.05;;;3.25;;
72524;SDS011;60547;48.502;8.996;2022-07-29T05:27:22;4.85;;;3.40;;
72524;SDS011;60547;48.502;8.996;2022-07-29T05:29:47;4.68;;;3.45;;
72524;SDS011;60547;48.502;8.996;2022-07-29T05:32:13;4.63;;;3.35;;
72524;SDS011;60547;48.502;8.996;2022-07-29T05:34:38;6.38;;;3.63;;
72524;SDS011;60547;48.502;8.996;2022-07-29T05:37:04;4.95;;;3.47;;
72524;SDS011;60547;48.502;8.996;2022-07-29T05:39:30;5.60;;;3.30;;
72524;SDS011;60547;48.502;8.996;2022-07-29T05:41:55;6.90;;;3.63;;
72524;SDS011;60547;48.502;8.996;2022-07-29T05:44:21;5.50;;;3.60;;
72524;SDS011;60547;48.502;8.996;2022-07-29T05:46:46;5.70;;;3.67;;
72524;SDS011;60547;48.502;8.996;2022-07-29T05:49:12;7.82;;;4.43;;
72524;SDS011;60547;48.502;8.996;2022-07-29T05:51:37;6.25;;;4.10;;
72524;SDS011;60547;48.502;8.996;2022-07-29T05:54:02;6.32;;;3.75;;
72524;SDS011;60547;48.502;8.996;2022-07-29T05:56:30;5.65;;;3.70;;
72524;SDS011;60547;48.502;8.996;2022-07-29T05:58:56;4.70;;;3.58;;
72524;SDS011;60547;48.502;8.996;2022-07-29T06:01:21;5.72;;;3.85;;
72524;SDS011;60547;48.502;8.996;2022-07-29T06:03:46;6.90;;;3.65;;
72524;SDS011;60547;48.502;8.996;2022-07-29T06:06:12;5.00;;;3.33;;
72524;SDS011;60547;48.502;8.996;2022-07-29T06:08:37;6.00;;;3.80;;
72524;SDS011;60547;48.502;8.996;2022-07-29T06:11:03;7.80;;;4.15;;
72524;SDS011;60547;48.502;8.996;2022-07-29T06:13:29;5.20;;;3.70;;
72524;SDS011;60547;48.502;8.996;2022-07-29T06:15:56;5.55;;;3.65;;
72524;SDS011;60547;48.502;8.996;2022-07-29T06:18:21;6.63;;;4.10;;
72524;SDS011;60547;48.502;8.996;2022-07-29T06:20:49;6.20;;;4.03;;
72524;SDS011;60547;48.502;8.996;2022-07-29T06:23:15;6.10;;;3.83;;
72524;SDS011;60547;48.502;8.996;2022-07-29T06:25:41;6.35;;;4.32;;
72524;SDS011;60547;48.502;8.996;2022-07-29T06:28:07;7.10;;;4.00;;
72524;SDS011;60547;48.502;8.996;2022-07-29T06:30:32;6.43;;;3.88;;
72524;SDS011;60547;48.502;8.996;2022-07-29T06:32:58;6.38;;;3.28;;
72524;SDS011;60547;48.502;8.996;2022-07-29T06:35:23;5.50;;;3.25;;
72524;SDS011;60547;48.502;8.996;2022-07-29T06:37:48;6.85;;;3.45;;
72524;SDS011;60547;48.502;8.996;2022-07-29T06:40:14;4.72;;;3.28;;
72524;SDS011;60547;48.502;8.996;2022-07-29T06:42:58;8.23;;;4.43;;
72524;SDS011;60547;48.502;8.996;2022-07-29T06:45:23;7.47;;;4.10;;
72524;SDS011;60547;48.502;8.996;2022-07-29T06:47:49;6.45;;;3.33;;
72524;SDS011;60547;48.502;8.996;2022-07-29T06:50:14;7.25;;;3.90;;
72524;SDS011;60547;48.502;8.996;2022-07-29T06:52:40;6.43;;;3.53;;
72524;SDS011;60547;48.502;8.996;2022-07-29T06:55:06;7.35;;;3.80;;
72524;SDS011;60547;48.502;8.996;2022-07-29T06:57:32;4.22;;;2.80;;
72524;SDS011;60547;48.502;8.996;2022-07-29T06:59:58;7.28;;;3.30;;
72524;SDS011;60547;48.502;8.996;2022-07-29T07:02:23;5.57;;;3.05;;
72524;SDS011;60547;48.502;8.996;2022-07-29T07:04:49;4.95;;;2.80;;
72524;SDS011;60547;48.502;8.996;2022-07-29T07:07:14;5.85;;;3.00;;
72524;SDS011;60547;48.502;8.996;2022-07-29T07:09:40;8.43;;;4.03;;
72524;SDS011;60547;48.502;8.996;2022-07-29T07:12:06;7.82;;;3.80;;
72524;SDS011;60547;48.502;8.996;2022-07-29T07:14:32;8.05;;;3.45;;
72524;SDS011;60547;48.502;8.996;2022-07-29T07:16:57;7.07;;;3.38;;
72524;SDS011;60547;48.502;8.996;2022-07-29T07:19:25;8.30;;;3.80;;
72524;SDS011;60547;48.502;8.996;2022-07-29T07:21:54;10.75;;;3.92;;
72524;SDS011;60547;48.502;8.996;2022-07-29T07:24:22;5.90;;;3.40;;
72524;SDS011;60547;48.502;8.996;2022-07-29T07:26:48;7.95;;;3.80;;
72524;SDS011;60547;48.502;8.996;2022-07-29T07:29:13;7.95;;;3.35;;
72524;SDS011;60547;48.502;8.996;2022-07-29T07:31:38;6.65;;;3.55;;
72524;SDS011;60547;48.502;8.996;2022-07-29T07:34:04;5.80;;;3.38;;
72524;SDS011;60547;48.502;8.996;2022-07-29T07:36:30;6.95;;;3.38;;
72524;SDS011;60547;48.502;8.996;2022-07-29T07:38:55;4.30;;;2.85;;
72524;SDS011;60547;48.502;8.996;2022-07-29T07:41:21;5.95;;;3.33;;
72524;SDS011;60547;48.502;8.996;2022-07-29T07:43:46;6.30;;;3.80;;
72524;SDS011;60547;48.502;8.996;2022-07-29T07:46:12;6.25;;;4.13;;
72524;SDS011;60547;48.502;8.996;2022-07-29T07:48:37;5.97;;;3.17;;
72524;SDS011;60547;48.502;8.996;2022-07-29T07:51:02;5.30;;;3.00;;
72524;SDS011;60547;48.502;8.996;2022-07-29T07:53:28;5.57;;;3.38;;
72524;SDS011;60547;48.502;8.996;2022-07-29T07:55:55;6.32;;;3.70;;
72524;SDS011;60547;48.502;8.996;2022-07-29T07:58:20;6.10;;;3.13;;
72524;SDS011;60547;48.502;8.996;2022-07-29T08:00:46;5.32;;;3.33;;
72524;SDS011;60547;48.502;8.996;2022-07-29T08:03:12;5.47;;;3.47;;
72524;SDS011;60547;48.502;8.996;2022-07-29T08:05:39;4.78;;;3.42;;
72524;SDS011;60547;48.502;8.996;2022-07-29T08:08:05;6.80;;;3.60;;
72524;SDS011;60547;48.502;8.996;2022-07-29T08:10:31;5.03;;;3.15;;
72524;SDS011;60547;48.502;8.996;2022-07-29T08:13:15;6.22;;;3.72;;
72524;SDS011;60547;48.502;8.996;2022-07-29T08:15:40;5.40;;;3.70;;
72524;SDS011;60547;48.502;8.996;2022-07-29T08:18:10;6.75;;;3.53;;
72524;SDS011;60547;48.502;8.996;2022-07-29T08:20:36;5.45;;;3.88;;
72524;SDS011;60547;48.502;8.996;2022-07-29T08:23:03;6.15;;;3.85;;
72524;SDS011;60547;48.502;8.996;2022-07-29T08:25:31;6.97;;;3.40;;
72524;SDS011;60547;48.502;8.996;2022-07-29T08:28:05;6.07;;;3.80;;
72524;SDS011;60547;48.502;8.996;2022-07-29T08:30:31;7.35;;;3.72;;
72524;SDS011;60547;48.502;8.996;2022-07-29T08:32:57;6.05;;;3.58;;
72524;SDS011;60547;48.502;8.996;2022-07-29T08:35:23;5.38;;;3.50;;
72524;SDS011;60547;48.502;8.996;2022-07-29T08:37:50;5.93;;;3.50;;
72524;SDS011;60547;48.502;8.996;2022-07-29T08:40:16;6.28;;;3.92;;
72524;SDS011;60547;48.502;8.996;2022-07-29T08:42:42;6.10;;;3.70;;
72524;SDS011;60547;48.502;8.996;2022-07-29T08:45:07;5.93;;;3.72;;
72524;SDS011;60547;48.502;8.996;2022-07-29T08:47:33;6.80;;;3.60;;
72524;SDS011;60547;48.502;8.996;2022-07-29T08:50:01;7.30;;;3.45;;
72524;SDS011;60547;48.502;8.996;2022-07-29T08:52:27;6.97;;;3.83;;
72524;SDS011;60547;48.502;8.996;2022-07-29T08:54:57;6.60;;;3.65;;
72524;SDS011;60547;48.502;8.996;2022-07-29T08:57:23;8.18;;;3.55;;
72524;SDS011;60547;48.502;8.996;2022-07-29T08:59:50;6.25;;;3.42;;
72524;SDS011;60547;48.502;8.996;2022-07-29T09:02:21;6.63;;;3.88;;
72524;SDS011;60547;48.502;8.996;2022-07-29T09:04:47;5.97;;;3.40;;
72524;SDS011;60547;48.502;8.996;2022-07-29T09:07:15;7.80;;;3.83;;
72524;SDS011;60547;48.502;8.996;2022-07-29T09:09:42;4.97;;;3.53;;
72524;SDS011;60547;48.502;8.996;2022-07-29T09:12:08;5.03;;;3.58;;
72524;SDS011;60547;48.502;8.996;2022-07-29T09:14:36;7.90;;;3.38;;
72524;SDS011;60547;48.502;8.996;2022-07-29T09:17:04;6.22;;;3.53;;
72524;SDS011;60547;48.502;8.996;2022-07-29T09:19:31;5.78;;;3.40;;
72524;SDS011;60547;48.502;8.996;2022-07-29T09:22:00;6.05;;;3.45;;
72524;SDS011;60547;48.502;8.996;2022-07-29T09:24:48;5.80;;;3.70;;
72524;SDS011;60547;48.502;8.996;2022-07-29T09:27:18;4.70;;;3.58;;
72524;SDS011;60547;48.502;8.996;2022-07-29T09:29:57;6.70;;;3.50;;
72524;SDS011;60547;48.502;8.996;2022-07-29T09:32:31;5.75;;;3.38;;
72524;SDS011;60547;48.502;8.996;2022-07-29T09:37:45;5.85;;;3.53;;
72524;SDS011;60547;48.502;8.996;2022-07-29T09:40:12;5.68;;;3.20;;
72524;SDS011;60547;48.502;8.996;2022-07-29T09:42:38;4.63;;;3.45;;
72524;SDS011;60547;48.502;8.996;2022-07-29T09:45:04;6.05;;;3.83;;
72524;SDS011;60547;48.502;8.996;2022-07-29T09:47:46;7.93;;;3.40;;
72524;SDS011;60547;48.502;8.996;2022-07-29T09:50:14;4.47;;;3.45;;
72524;SDS011;60547;48.502;8.996;2022-07-29T09:52:48;5.70;;;3.65;;
72524;SDS011;60547;48.502;8.996;2022-07-29T09:55:18;7.18;;;3.72;;
72524;SDS011;60547;48.502;8.996;2022-07-29T09:57:44;5.30;;;3.30;;
72524;SDS011;60547;48.502;8.996;2022-07-29T10:00:20;5.57;;;3.60;;
72524;SDS011;60547;48.502;8.996;2022-07-29T10:02:47;5.60;;;3.70;;
72524;SDS011;60547;48.502;8.996;2022-07-29T10:05:23;6.15;;;3.78;;
72524;SDS011;60547;48.502;8.996;2022-07-29T10:07:50;5.90;;;3.22;;
72524;SDS011;60547;48.502;8.996;2022-07-29T10:10:20;5.63;;;3.60;;
72524;SDS011;60547;48.502;8.996;2022-07-29T10:12:51;7.57;;;3.60;;
72524;SDS011;60547;48.502;8.996;2022-07-29T10:15:19;5.57;;;3.20;;
72524;SDS011;60547;48.502;8.996;2022-07-29T10:17:46;4.95;;;3.20;;
72524;SDS011;60547;48.502;8.996;2022-07-29T10:20:13;6.03;;;3.50;;
72524;SDS011;60547;48.502;8.996;2022-07-29T10:22:39;5.68;;;3.33;;
72524;SDS011;60547;48.502;8.996;2022-07-29T10:25:05;6.45;;;3.50;;
72524;SDS011;60547;48.502;8.996;2022-07-29T10:27:32;5.32;;;3.25;;
72524;SDS011;60547;48.502;8.996;2022-07-29T10:29:57;5.68;;;3.80;;
72524;SDS011;60547;48.502;8.996;2022-07-29T10:41:13;6.07;;;3.72;;
72524;SDS011;60547;48.502;8.996;2022-07-29T10:46:25;5.38;;;3.10;;
72524;SDS011;60547;48.502;8.996;2022-07-29T10:49:26;4.47;;;2.53;;
72524;SDS011;60547;48.502;8.996;2022-07-29T10:54:44;5.22;;;2.60;;
72524;SDS011;60547;48.502;8.996;2022-07-29T11:00:35;5.03;;;2.70;;
72524;SDS011;60547;48.502;8.996;2022-07-29T11:05:08;5.85;;;2.40;;
72524;SDS011;60547;48.502;8.996;2022-07-29T11:07:34;4.95;;;2.22;;
72524;SDS011;60547;48.502;8.996;2022-07-29T11:15:15;5.57;;;3.50;;
72524;SDS011;60547;48.502;8.996;2022-07-29T11:23:01;6.05;;;3.30;;
72524;SDS011;60547;48.502;8.996;2022-07-29T11:25:42;4.85;;;3.22;;
72524;SDS011;60547;48.502;8.996;2022-07-29T11:28:08;4.95;;;2.92;;
72524;SDS011;60547;48.502;8.996;2022-07-29T11:30:48;5.10;;;2.70;;
72524;SDS011;60547;48.502;8.996;2022-07-29T11:33:31;4.65;;;2.80;;
72524;SDS011;60547;48.502;8.996;2022-07-29T11:36:14;4.80;;;2.60;;
72524;SDS011;60547;48.502;8.996;2022-07-29T11:38:40;4.63;;;2.42;;
72524;SDS011;60547;48.502;8.996;2022-07-29T11:41:25;3.33;;;2.05;;
72524;SDS011;60547;48.502;8.996;2022-07-29T11:49:06;5.75;;;2.20;;
72524;SDS011;60547;48.502;8.996;2022-07-29T11:51:32;5.35;;;2.28;;
72524;SDS011;60547;48.502;8.996;2022-07-29T11:53:58;3.92;;;2.28;;
72524;SDS011;60547;48.502;8.996;2022-07-29T11:56:25;4.07;;;2.40;;
72524;SDS011;60547;48.502;8.996;2022-07-29T11:59:04;4.65;;;2.50;;
72524;SDS011;60547;48.502;8.996;2022-07-29T12:01:31;3.88;;;2.40;;
72524;SDS011;60547;48.502;8.996;2022-07-29T12:04:06;4.47;;;2.67;;
72524;SDS011;60547;48.502;8.996;2022-07-29T12:06:33;4.00;;;2.45;;
72524;SDS011;60547;48.502;8.996;2022-07-29T12:08:59;4.50;;;2.88;;
72524;SDS011;60547;48.502;8.996;2022-07-29T12:11:25;5.05;;;2.95;;
72524;SDS011;60547;48.502;8.996;2022-07-29T12:13:50;4.10;;;2.78;;
72524;SDS011;60547;48.502;8.996;2022-07-29T12:16:16;5.28;;;2.70;;
72524;SDS011;60547;48.502;8.996;2022-07-29T12:18:42;3.75;;;2.63;;
72524;SDS011;60547;48.502;8.996;2022-07-29T12:21:20;6.07;;;2.80;;
72524;SDS011;60547;48.502;8.996;2022-07-29T12:23:51;4.38;;;2.72;;
72524;SDS011;60547;48.502;8.996;2022-07-29T12:26:18;3.75;;;2.50;;
72524;SDS011;60547;48.502;8.996;2022-07-29T12:28:44;4.25;;;2.35;;
72524;SDS011;60547;48.502;8.996;2022-07-29T12:31:13;3.70;;;2.60;;
72524;SDS011;60547;48.502;8.996;2022-07-29T12:33:39;5.78;;;2.85;;
72524;SDS011;60547;48.502;8.996;2022-07-29T12:36:05;6.22;;;2.78;;
72524;SDS011;60547;48.502;8.996;2022-07-29T12:38:31;5.40;;;2.80;;
72524;SDS011;60547;48.502;8.996;2022-07-29T12:40:57;4.55;;;3.08;;
72524;SDS011;60547;48.502;8.996;2022-07-29T12:43:23;4.50;;;3.00;;
72524;SDS011;60547;48.502;8.996;2022-07-29T12:45:50;5.70;;;3.05;;
72524;SDS011;60547;48.502;8.996;2022-07-29T12:48:17;4.88;;;3.20;;
72524;SDS011;60547;48.502;8.996;2022-07-29T12:50:57;6.70;;;3.20;;
72524;SDS011;60547;48.502;8.996;2022-07-29T12:53:25;4.60;;;2.90;;
72524;SDS011;60547;48.502;8.996;2022-07-29T12:55:52;4.35;;;2.90;;
72524;SDS011;60547;48.502;8.996;2022-07-29T12:58:31;4.28;;;3.08;;
72524;SDS011;60547;48.502;8.996;2022-07-29T13:01:01;5.57;;;3.47;;
72524;SDS011;60547;48.502;8.996;2022-07-29T13:03:29;5.32;;;2.88;;
72524;SDS011;60547;48.502;8.996;2022-07-29T13:11:53;5.30;;;3.00;;
72524;SDS011;60547;48.502;8.996;2022-07-29T13:19:40;5.00;;;2.90;;
72524;SDS011;60547;48.502;8.996;2022-07-29T13:22:06;4.65;;;3.20;;
72524;SDS011;60547;48.502;8.996;2022-07-29T13:24:32;4.72;;;3.22;;
72524;SDS011;60547;48.502;8.996;2022-07-29T13:26:58;6.22;;;3.10;;
72524;SDS011;60547;48.502;8.996;2022-07-29T13:29:23;4.75;;;3.05;;
72524;SDS011;60547;48.502;8.996;2022-07-29T13:31:51;4.57;;;2.90;;
72524;SDS011;60547;48.502;8.996;2022-07-29T13:34:16;5.07;;;2.92;;
72524;SDS011;60547;48.502;8.996;2022-07-29T13:36:44;4.05;;;2.70;;
72524;SDS011;60547;48.502;8.996;2022-07-29T13:39:09;4.63;;;3.15;;
72524;SDS011;60547;48.502;8.996;2022-07-29T13:41:36;5.13;;;2.78;;
72524;SDS011;60547;48.502;8.996;2022-07-29T13:44:02;5.47;;;3.15;;
72524;SDS011;60547;48.502;8.996;2022-07-29T13:46:27;5.65;;;3.08;;
72524;SDS011;60547;48.502;8.996;2022-07-29T13:48:52;4.80;;;3.10;;
72524;SDS011;60547;48.502;8.996;2022-07-29T13:51:18;4.85;;;3.05;;
72524;SDS011;60547;48.502;8.996;2022-07-29T13:53:43;5.75;;;2.90;;
72524;SDS011;60547;48.502;8.996;2022-07-29T13:56:09;5.20;;;3.17;;
72524;SDS011;60547;48.502;8.996;2022-07-29T13:58:34;4.72;;;3.13;;
72524;SDS011;60547;48.502;8.996;2022-07-29T14:01:00;4.97;;;3.20;;
72524;SDS011;60547;48.502;8.996;2022-07-29T14:03:25;5.55;;;3.30;;
72524;SDS011;60547;48.502;8.996;2022-07-29T14:05:51;5.57;;;3.30;;
72524;SDS011;60547;48.502;8.996;2022-07-29T14:08:17;5.13;;;3.47;;
72524;SDS011;60547;48.502;8.996;2022-07-29T14:10:42;4.60;;;3.35;;
72524;SDS011;60547;48.502;8.996;2022-07-29T14:13:08;5.15;;;3.40;;
72524;SDS011;60547;48.502;8.996;2022-07-29T14:15:33;4.85;;;3.40;;
72524;SDS011;60547;48.502;8.996;2022-07-29T14:17:59;5.32;;;3.13;;
72524;SDS011;60547;48.502;8.996;2022-07-29T14:20:24;6.40;;;3.33;;
72524;SDS011;60547;48.502;8.996;2022-07-29T14:22:50;4.72;;;2.90;;
72524;SDS011;60547;48.502;8.996;2022-07-29T14:25:15;4.93;;;3.28;;
72524;SDS011;60547;48.502;8.996;2022-07-29T14:27:42;4.68;;;3.20;;
72524;SDS011;60547;48.502;8.996;2022-07-29T14:30:08;5.68;;;2.95;;
72524;SDS011;60547;48.502;8.996;2022-07-29T14:32:34;6.22;;;3.45;;
72524;SDS011;60547;48.502;8.996;2022-07-29T14:35:00;4.72;;;3.13;;
72524;SDS011;60547;48.502;8.996;2022-07-29T14:37:25;4.68;;;3.10;;
72524;SDS011;60547;48.502;8.996;2022-07-29T14:39:50;6.72;;;3.10;;
72524;SDS011;60547;48.502;8.996;2022-07-29T14:42:16;5.20;;;2.95;;
72524;SDS011;60547;48.502;8.996;2022-07-29T14:44:41;5.78;;;3.00;;
72524;SDS011;60547;48.502;8.996;2022-07-29T14:47:06;4.28;;;3.05;;
72524;SDS011;60547;48.502;8.996;2022-07-29T14:49:32;4.90;;;2.85;;
72524;SDS011;60547;48.502;8.996;2022-07-29T14:51:57;5.35;;;2.90;;
72524;SDS011;60547;48.502;8.996;2022-07-29T14:54:23;5.50;;;3.17;;
72524;SDS011;60547;48.502;8.996;2022-07-29T14:56:48;4.78;;;2.60;;
72524;SDS011;60547;48.502;8.996;2022-07-29T14:59:16;5.68;;;3.08;;
72524;SDS011;60547;48.502;8.996;2022-07-29T15:01:42;4.47;;;3.03;;
72524;SDS011;60547;48.502;8.996;2022-07-29T15:04:08;5.38;;;2.92;;
72524;SDS011;60547;48.502;8.996;2022-07-29T15:06:33;4.45;;;2.90;;
72524;SDS011;60547;48.502;8.996;2022-07-29T15:08:59;4.78;;;2.72;;
72524;SDS011;60547;48.502;8.996;2022-07-29T15:11:24;4.43;;;2.80;;
72524;SDS011;60547;48.502;8.996;2022-07-29T15:13:50;4.38;;;2.90;;
72524;SDS011;60547;48.502;8.996;2022-07-29T15:16:15;4.00;;;2.95;;
72524;SDS011;60547;48.502;8.996;2022-07-29T15:18:41;4.95;;;2.90;;
72524;SDS011;60547;48.502;8.996;2022-07-29T15:21:07;4.45;;;2.65;;
72524;SDS011;60547;48.502;8.996;2022-07-29T15:23:32;7.43;;;2.85;;
72524;SDS011;60547;48.502;8.996;2022-07-29T15:26:00;4.90;;;2.67;;
72524;SDS011;60547;48.502;8.996;2022-07-29T15:28:25;4.47;;;2.55;;
72524;SDS011;60547;48.502;8.996;2022-07-29T15:30:51;4.13;;;2.50;;
72524;SDS011;60547;48.502;8.996;2022-07-29T15:33:16;4.10;;;2.70;;
72524;SDS011;60547;48.502;8.996;2022-07-29T15:35:42;4.60;;;2.67;;
72524;SDS011;60547;48.502;8.996;2022-07-29T15:38:08;4.78;;;2.80;;
72524;SDS011;60547;48.502;8.996;2022-07-29T15:40:33;4.93;;;2.97;;
72524;SDS011;60547;48.502;8.996;2022-07-29T15:42:59;4.40;;;2.70;;
72524;SDS011;60547;48.502;8.996;2022-07-29T15:45:34;5.95;;;2.95;;
72524;SDS011;60547;48.502;8.996;2022-07-29T15:48:04;5.50;;;2.80;;
72524;SDS011;60547;48.502;8.996;2022-07-29T15:50:31;3.78;;;2.80;;
72524;SDS011;60547;48.502;8.996;2022-07-29T15:52:57;4.43;;;2.75;;